Archival Weather

Chicago O'Hare International

Chicago, Illinois (KORD)

Report from: Friday, March 30, 2012 3:51 AM CDT
Current time: Friday, June 21, 2024 6:26 PM CDT

Current weather – Weather history – Daily summaries
Weather forecast

Temperature7.8°C (46.0°F)
Wind chill5.0°C (41.0°F)
Dew point3.9°C (39.0°F)
Winds 9 kts (4.6 m/s, 10.4 mph) Southeast (130°)
Visibility10 mi. (16.1 km)
Clouds Few clouds 4,600 ft. (1,402 m)
Scattered clouds 6,000 ft. (1,829 m)
Altimeter29.82 in.Hg (1010 mB)
Precip last 3 hoursTrace
Relative humidity76 %
Density altitude-635 ft. (-194 m)
Sea-level pressure101.0 kPa (1010 mB, 29.83 in.Hg)
Remarks System requires maintenance
Automated weather observing station with precipitation discriminator
Pressure falling more quickly
Flight conditions Visual Meteorological Conditions
Raw data2012-03-30 08:51 KORD 300851Z 13009KT 10SM FEW046 SCT060 08/04 A2982 RMK AO2 SLP100 60000 T00780039 58040 $
An error has occurred. This application may no longer respond until reloaded. Reload 🗙